sensor_id;sensor_type;location;lat;lon;timestamp;P1;durP1;ratioP1;P2;durP2;ratioP2
77160;SDS011;66135;0.000;0.000;2023-09-19T00:02:19;2.38;;;0.80;;
77160;SDS011;66135;0.000;0.000;2023-09-19T00:04:44;1.92;;;0.65;;
77160;SDS011;66135;0.000;0.000;2023-09-19T00:07:10;3.55;;;0.80;;
77160;SDS011;66135;0.000;0.000;2023-09-19T00:09:35;1.50;;;0.77;;
77160;SDS011;66135;0.000;0.000;2023-09-19T00:12:05;7.15;;;0.88;;
77160;SDS011;66135;0.000;0.000;2023-09-19T00:14:31;1.42;;;0.65;;
77160;SDS011;66135;0.000;0.000;2023-09-19T00:17:01;2.60;;;0.63;;
77160;SDS011;66135;0.000;0.000;2023-09-19T00:19:30;1.45;;;0.52;;
77160;SDS011;66135;0.000;0.000;2023-09-19T00:21:57;1.95;;;0.68;;
77160;SDS011;66135;0.000;0.000;2023-09-19T00:24:23;1.55;;;0.45;;
77160;SDS011;66135;0.000;0.000;2023-09-19T00:26:48;1.80;;;0.50;;
77160;SDS011;66135;0.000;0.000;2023-09-19T00:29:14;1.40;;;0.57;;
77160;SDS011;66135;0.000;0.000;2023-09-19T00:31:44;1.55;;;0.45;;
77160;SDS011;66135;0.000;0.000;2023-09-19T00:34:10;3.13;;;0.70;;
77160;SDS011;66135;0.000;0.000;2023-09-19T00:36:38;2.08;;;0.60;;
77160;SDS011;66135;0.000;0.000;2023-09-19T00:39:04;1.48;;;0.52;;
77160;SDS011;66135;0.000;0.000;2023-09-19T00:41:33;2.67;;;0.43;;
77160;SDS011;66135;0.000;0.000;2023-09-19T00:44:01;2.60;;;0.73;;
77160;SDS011;66135;0.000;0.000;2023-09-19T00:46:27;1.73;;;0.57;;
77160;SDS011;66135;0.000;0.000;2023-09-19T00:48:53;2.08;;;0.70;;
77160;SDS011;66135;0.000;0.000;2023-09-19T00:51:19;2.20;;;0.63;;
77160;SDS011;66135;0.000;0.000;2023-09-19T00:53:47;3.03;;;0.73;;
77160;SDS011;66135;0.000;0.000;2023-09-19T00:56:13;2.10;;;0.70;;
77160;SDS011;66135;0.000;0.000;2023-09-19T00:58:43;2.25;;;0.43;;
77160;SDS011;66135;0.000;0.000;2023-09-19T01:01:09;1.80;;;0.43;;
77160;SDS011;66135;0.000;0.000;2023-09-19T01:03:36;1.42;;;0.32;;
77160;SDS011;66135;0.000;0.000;2023-09-19T01:06:02;2.58;;;0.47;;
77160;SDS011;66135;0.000;0.000;2023-09-19T01:08:27;2.38;;;0.43;;
77160;SDS011;66135;0.000;0.000;2023-09-19T01:11:03;2.22;;;0.50;;
77160;SDS011;66135;0.000;0.000;2023-09-19T01:13:35;1.15;;;0.20;;
77160;SDS011;66135;0.000;0.000;2023-09-19T01:18:43;1.42;;;0.43;;
77160;SDS011;66135;0.000;0.000;2023-09-19T01:21:28;2.10;;;0.40;;
77160;SDS011;66135;0.000;0.000;2023-09-19T01:29:30;1.35;;;0.50;;
77160;SDS011;66135;0.000;0.000;2023-09-19T01:32:09;1.80;;;0.55;;
77160;SDS011;66135;0.000;0.000;2023-09-19T01:34:48;1.83;;;0.32;;
77160;SDS011;66135;0.000;0.000;2023-09-19T01:37:18;1.65;;;0.50;;
77160;SDS011;66135;0.000;0.000;2023-09-19T01:39:48;2.42;;;0.60;;
77160;SDS011;66135;0.000;0.000;2023-09-19T01:47:46;2.63;;;0.40;;
77160;SDS011;66135;0.000;0.000;2023-09-19T01:50:21;2.05;;;0.60;;
77160;SDS011;66135;0.000;0.000;2023-09-19T01:53:25;1.38;;;0.25;;
77160;SDS011;66135;0.000;0.000;2023-09-19T01:55:55;1.38;;;0.35;;
77160;SDS011;66135;0.000;0.000;2023-09-19T02:01:04;1.08;;;0.40;;
77160;SDS011;66135;0.000;0.000;2023-09-19T02:03:33;1.30;;;0.20;;
77160;SDS011;66135;0.000;0.000;2023-09-19T02:06:00;1.52;;;0.65;;
77160;SDS011;66135;0.000;0.000;2023-09-19T02:08:25;2.47;;;0.65;;
77160;SDS011;66135;0.000;0.000;2023-09-19T02:10:51;1.75;;;0.35;;
77160;SDS011;66135;0.000;0.000;2023-09-19T02:13:18;1.48;;;0.28;;
77160;SDS011;66135;0.000;0.000;2023-09-19T02:15:45;2.65;;;0.45;;
77160;SDS011;66135;0.000;0.000;2023-09-19T02:18:11;0.68;;;0.20;;
77160;SDS011;66135;0.000;0.000;2023-09-19T02:20:37;1.23;;;0.32;;
77160;SDS011;66135;0.000;0.000;2023-09-19T02:23:03;1.13;;;0.30;;
77160;SDS011;66135;0.000;0.000;2023-09-19T02:25:28;0.88;;;0.25;;
77160;SDS011;66135;0.000;0.000;2023-09-19T02:27:54;1.83;;;0.13;;
77160;SDS011;66135;0.000;0.000;2023-09-19T02:30:23;2.50;;;0.47;;
77160;SDS011;66135;0.000;0.000;2023-09-19T02:32:50;2.25;;;0.73;;
77160;SDS011;66135;0.000;0.000;2023-09-19T02:35:15;1.00;;;0.20;;
77160;SDS011;66135;0.000;0.000;2023-09-19T02:40:06;1.73;;;0.30;;
77160;SDS011;66135;0.000;0.000;2023-09-19T02:42:44;1.45;;;0.30;;
77160;SDS011;66135;0.000;0.000;2023-09-19T02:45:12;1.73;;;0.20;;
77160;SDS011;66135;0.000;0.000;2023-09-19T02:47:37;2.50;;;0.50;;
77160;SDS011;66135;0.000;0.000;2023-09-19T02:50:05;1.15;;;0.20;;
77160;SDS011;66135;0.000;0.000;2023-09-19T02:52:30;1.63;;;0.30;;
77160;SDS011;66135;0.000;0.000;2023-09-19T02:54:56;1.63;;;0.17;;
77160;SDS011;66135;0.000;0.000;2023-09-19T02:57:22;3.17;;;0.60;;
77160;SDS011;66135;0.000;0.000;2023-09-19T02:59:49;1.15;;;0.30;;
77160;SDS011;66135;0.000;0.000;2023-09-19T03:02:14;1.95;;;0.20;;
77160;SDS011;66135;0.000;0.000;2023-09-19T03:04:40;1.83;;;0.47;;
77160;SDS011;66135;0.000;0.000;2023-09-19T03:07:06;1.58;;;0.30;;
77160;SDS011;66135;0.000;0.000;2023-09-19T03:09:31;2.63;;;0.40;;
77160;SDS011;66135;0.000;0.000;2023-09-19T03:11:57;2.95;;;0.40;;
77160;SDS011;66135;0.000;0.000;2023-09-19T03:14:23;1.67;;;0.30;;
77160;SDS011;66135;0.000;0.000;2023-09-19T03:16:48;1.58;;;0.40;;
77160;SDS011;66135;0.000;0.000;2023-09-19T03:19:14;1.45;;;0.30;;
77160;SDS011;66135;0.000;0.000;2023-09-19T03:24:05;1.25;;;0.30;;
77160;SDS011;66135;0.000;0.000;2023-09-19T03:26:31;2.00;;;0.20;;
77160;SDS011;66135;0.000;0.000;2023-09-19T03:31:22;1.27;;;0.20;;
77160;SDS011;66135;0.000;0.000;2023-09-19T03:33:47;1.42;;;0.20;;
77160;SDS011;66135;0.000;0.000;2023-09-19T03:38:40;0.90;;;0.20;;
77160;SDS011;66135;0.000;0.000;2023-09-19T03:41:06;3.20;;;0.32;;
77160;SDS011;66135;0.000;0.000;2023-09-19T03:43:31;2.25;;;0.75;;
77160;SDS011;66135;0.000;0.000;2023-09-19T03:48:27;1.45;;;0.38;;
77160;SDS011;66135;0.000;0.000;2023-09-19T03:50:52;2.15;;;0.20;;
77160;SDS011;66135;0.000;0.000;2023-09-19T03:53:19;2.25;;;0.25;;
77160;SDS011;66135;0.000;0.000;2023-09-19T03:55:45;1.58;;;0.28;;
77160;SDS011;66135;0.000;0.000;2023-09-19T03:58:11;1.27;;;0.20;;
77160;SDS011;66135;0.000;0.000;2023-09-19T04:00:36;1.27;;;0.13;;
77160;SDS011;66135;0.000;0.000;2023-09-19T04:05:30;1.73;;;0.15;;
77160;SDS011;66135;0.000;0.000;2023-09-19T04:07:56;1.83;;;0.30;;
77160;SDS011;66135;0.000;0.000;2023-09-19T04:10:21;0.85;;;0.20;;
77160;SDS011;66135;0.000;0.000;2023-09-19T04:12:51;1.70;;;0.30;;
77160;SDS011;66135;0.000;0.000;2023-09-19T04:15:18;1.35;;;0.32;;
77160;SDS011;66135;0.000;0.000;2023-09-19T04:17:43;0.95;;;0.30;;
77160;SDS011;66135;0.000;0.000;2023-09-19T04:20:09;1.52;;;0.40;;
77160;SDS011;66135;0.000;0.000;2023-09-19T04:22:37;1.27;;;0.20;;
77160;SDS011;66135;0.000;0.000;2023-09-19T04:25:03;1.02;;;0.10;;
77160;SDS011;66135;0.000;0.000;2023-09-19T04:27:29;1.35;;;0.20;;
77160;SDS011;66135;0.000;0.000;2023-09-19T04:32:24;1.05;;;0.28;;
77160;SDS011;66135;0.000;0.000;2023-09-19T04:37:14;1.45;;;0.28;;
77160;SDS011;66135;0.000;0.000;2023-09-19T04:42:05;1.73;;;0.20;;
77160;SDS011;66135;0.000;0.000;2023-09-19T04:46:56;1.60;;;0.20;;
77160;SDS011;66135;0.000;0.000;2023-09-19T04:51:47;3.25;;;0.25;;
77160;SDS011;66135;0.000;0.000;2023-09-19T04:56:38;1.42;;;0.32;;
77160;SDS011;66135;0.000;0.000;2023-09-19T04:59:05;1.17;;;0.20;;
77160;SDS011;66135;0.000;0.000;2023-09-19T05:03:56;2.67;;;0.17;;
77160;SDS011;66135;0.000;0.000;2023-09-19T05:08:47;1.00;;;0.17;;
77160;SDS011;66135;0.000;0.000;2023-09-19T05:11:17;1.38;;;0.20;;
77160;SDS011;66135;0.000;0.000;2023-09-19T05:13:44;1.88;;;0.30;;
77160;SDS011;66135;0.000;0.000;2023-09-19T05:18:35;1.65;;;0.22;;
77160;SDS011;66135;0.000;0.000;2023-09-19T05:23:29;0.57;;;0.10;;
77160;SDS011;66135;0.000;0.000;2023-09-19T05:28:22;2.60;;;0.50;;
77160;SDS011;66135;0.000;0.000;2023-09-19T05:30:47;3.20;;;0.30;;
77160;SDS011;66135;0.000;0.000;2023-09-19T05:33:14;3.97;;;0.30;;
77160;SDS011;66135;0.000;0.000;2023-09-19T05:35:39;1.40;;;0.30;;
77160;SDS011;66135;0.000;0.000;2023-09-19T05:38:06;1.42;;;0.22;;
77160;SDS011;66135;0.000;0.000;2023-09-19T05:40:37;1.15;;;0.47;;
77160;SDS011;66135;0.000;0.000;2023-09-19T05:43:04;3.78;;;0.28;;
77160;SDS011;66135;0.000;0.000;2023-09-19T05:45:30;2.05;;;0.30;;
77160;SDS011;66135;0.000;0.000;2023-09-19T05:48:06;2.03;;;0.30;;
77160;SDS011;66135;0.000;0.000;2023-09-19T05:50:33;2.05;;;0.13;;
77160;SDS011;66135;0.000;0.000;2023-09-19T05:55:24;2.85;;;0.35;;
77160;SDS011;66135;0.000;0.000;2023-09-19T06:00:21;2.33;;;0.50;;
77160;SDS011;66135;0.000;0.000;2023-09-19T06:02:51;2.28;;;0.50;;
77160;SDS011;66135;0.000;0.000;2023-09-19T06:05:17;3.67;;;0.43;;
77160;SDS011;66135;0.000;0.000;2023-09-19T06:07:42;1.80;;;0.38;;
77160;SDS011;66135;0.000;0.000;2023-09-19T06:10:08;3.47;;;0.35;;
77160;SDS011;66135;0.000;0.000;2023-09-19T06:12:41;3.97;;;0.28;;
77160;SDS011;66135;0.000;0.000;2023-09-19T06:15:10;4.28;;;0.30;;
77160;SDS011;66135;0.000;0.000;2023-09-19T06:17:50;2.83;;;0.32;;
77160;SDS011;66135;0.000;0.000;2023-09-19T06:20:17;0.70;;;0.10;;
77160;SDS011;66135;0.000;0.000;2023-09-19T06:22:43;2.28;;;0.30;;
77160;SDS011;66135;0.000;0.000;2023-09-19T06:25:10;3.05;;;0.40;;
77160;SDS011;66135;0.000;0.000;2023-09-19T06:27:39;3.25;;;0.10;;
77160;SDS011;66135;0.000;0.000;2023-09-19T06:30:09;3.42;;;0.47;;
77160;SDS011;66135;0.000;0.000;2023-09-19T06:32:36;2.08;;;0.60;;
77160;SDS011;66135;0.000;0.000;2023-09-19T06:35:02;3.97;;;0.63;;
77160;SDS011;66135;0.000;0.000;2023-09-19T06:37:28;3.15;;;0.43;;
77160;SDS011;66135;0.000;0.000;2023-09-19T06:39:54;3.08;;;0.30;;
77160;SDS011;66135;0.000;0.000;2023-09-19T06:42:19;3.92;;;0.60;;
77160;SDS011;66135;0.000;0.000;2023-09-19T06:44:45;3.83;;;0.20;;
77160;SDS011;66135;0.000;0.000;2023-09-19T06:47:11;3.22;;;0.45;;
77160;SDS011;66135;0.000;0.000;2023-09-19T06:49:36;2.28;;;0.30;;
77160;SDS011;66135;0.000;0.000;2023-09-19T06:52:02;2.83;;;0.20;;
77160;SDS011;66135;0.000;0.000;2023-09-19T06:54:28;3.05;;;0.50;;
77160;SDS011;66135;0.000;0.000;2023-09-19T06:56:58;3.33;;;0.40;;
77160;SDS011;66135;0.000;0.000;2023-09-19T06:59:24;3.15;;;0.47;;
77160;SDS011;66135;0.000;0.000;2023-09-19T07:01:49;2.95;;;0.40;;
77160;SDS011;66135;0.000;0.000;2023-09-19T07:04:16;3.67;;;0.63;;
77160;SDS011;66135;0.000;0.000;2023-09-19T07:06:44;2.50;;;0.43;;
77160;SDS011;66135;0.000;0.000;2023-09-19T07:09:11;2.40;;;0.30;;
77160;SDS011;66135;0.000;0.000;2023-09-19T07:11:37;2.63;;;0.32;;
77160;SDS011;66135;0.000;0.000;2023-09-19T07:14:03;2.10;;;0.30;;
77160;SDS011;66135;0.000;0.000;2023-09-19T07:18:55;4.82;;;0.70;;
77160;SDS011;66135;0.000;0.000;2023-09-19T07:21:21;2.72;;;0.22;;
77160;SDS011;66135;0.000;0.000;2023-09-19T07:26:12;3.25;;;0.30;;
77160;SDS011;66135;0.000;0.000;2023-09-19T07:31:03;3.60;;;0.60;;
77160;SDS011;66135;0.000;0.000;2023-09-19T07:33:30;2.92;;;0.30;;
77160;SDS011;66135;0.000;0.000;2023-09-19T07:35:56;3.00;;;0.20;;
77160;SDS011;66135;0.000;0.000;2023-09-19T07:40:47;4.10;;;0.30;;
77160;SDS011;66135;0.000;0.000;2023-09-19T07:45:38;4.88;;;0.68;;
77160;SDS011;66135;0.000;0.000;2023-09-19T07:50:32;3.90;;;0.40;;
77160;SDS011;66135;0.000;0.000;2023-09-19T07:52:59;1.90;;;0.15;;
77160;SDS011;66135;0.000;0.000;2023-09-19T07:55:24;2.15;;;0.47;;
77160;SDS011;66135;0.000;0.000;2023-09-19T07:57:51;3.00;;;0.73;;
77160;SDS011;66135;0.000;0.000;2023-09-19T08:00:17;2.80;;;0.40;;
77160;SDS011;66135;0.000;0.000;2023-09-19T08:02:43;2.92;;;0.50;;
77160;SDS011;66135;0.000;0.000;2023-09-19T08:07:38;4.18;;;0.55;;
77160;SDS011;66135;0.000;0.000;2023-09-19T08:10:05;1.77;;;0.20;;
77160;SDS011;66135;0.000;0.000;2023-09-19T08:12:38;2.92;;;0.63;;
77160;SDS011;66135;0.000;0.000;2023-09-19T08:17:41;2.03;;;0.22;;
77160;SDS011;66135;0.000;0.000;2023-09-19T08:20:08;6.45;;;0.25;;
77160;SDS011;66135;0.000;0.000;2023-09-19T08:22:42;2.10;;;0.17;;
77160;SDS011;66135;0.000;0.000;2023-09-19T08:25:21;3.70;;;0.20;;
77160;SDS011;66135;0.000;0.000;2023-09-19T08:27:48;5.10;;;0.50;;
77160;SDS011;66135;0.000;0.000;2023-09-19T08:30:18;3.88;;;0.60;;
77160;SDS011;66135;0.000;0.000;2023-09-19T08:32:48;2.47;;;0.28;;
77160;SDS011;66135;0.000;0.000;2023-09-19T08:35:14;3.55;;;0.30;;
77160;SDS011;66135;0.000;0.000;2023-09-19T08:37:40;4.07;;;0.52;;
77160;SDS011;66135;0.000;0.000;2023-09-19T08:42:47;4.70;;;0.45;;
77160;SDS011;66135;0.000;0.000;2023-09-19T08:45:16;2.63;;;0.50;;
77160;SDS011;66135;0.000;0.000;2023-09-19T08:47:45;2.65;;;0.30;;
77160;SDS011;66135;0.000;0.000;2023-09-19T08:50:28;3.55;;;0.85;;
77160;SDS011;66135;0.000;0.000;2023-09-19T08:52:55;2.97;;;0.20;;
77160;SDS011;66135;0.000;0.000;2023-09-19T08:55:24;4.32;;;0.50;;
77160;SDS011;66135;0.000;0.000;2023-09-19T08:57:53;2.50;;;0.40;;
77160;SDS011;66135;0.000;0.000;2023-09-19T09:00:24;1.83;;;0.45;;
77160;SDS011;66135;0.000;0.000;2023-09-19T09:02:52;4.65;;;0.43;;
77160;SDS011;66135;0.000;0.000;2023-09-19T09:05:20;4.43;;;0.38;;
77160;SDS011;66135;0.000;0.000;2023-09-19T09:07:51;4.90;;;0.68;;
77160;SDS011;66135;0.000;0.000;2023-09-19T09:10:20;3.20;;;0.40;;
77160;SDS011;66135;0.000;0.000;2023-09-19T09:12:52;3.70;;;0.35;;
77160;SDS011;66135;0.000;0.000;2023-09-19T09:15:21;4.45;;;0.65;;
77160;SDS011;66135;0.000;0.000;2023-09-19T09:17:48;4.35;;;0.63;;
77160;SDS011;66135;0.000;0.000;2023-09-19T09:20:16;3.15;;;0.70;;
77160;SDS011;66135;0.000;0.000;2023-09-19T09:22:52;5.38;;;0.60;;
77160;SDS011;66135;0.000;0.000;2023-09-19T09:25:19;3.60;;;0.43;;
77160;SDS011;66135;0.000;0.000;2023-09-19T09:27:58;4.47;;;0.85;;
77160;SDS011;66135;0.000;0.000;2023-09-19T09:30:35;2.42;;;0.20;;
77160;SDS011;66135;0.000;0.000;2023-09-19T09:33:09;3.03;;;0.40;;
77160;SDS011;66135;0.000;0.000;2023-09-19T09:35:49;6.45;;;0.30;;
77160;SDS011;66135;0.000;0.000;2023-09-19T09:38:17;4.22;;;0.50;;
77160;SDS011;66135;0.000;0.000;2023-09-19T09:40:50;4.22;;;0.35;;
77160;SDS011;66135;0.000;0.000;2023-09-19T09:43:26;2.33;;;0.30;;
77160;SDS011;66135;0.000;0.000;2023-09-19T09:46:06;4.20;;;0.55;;
77160;SDS011;66135;0.000;0.000;2023-09-19T09:49:02;4.75;;;0.52;;
77160;SDS011;66135;0.000;0.000;2023-09-19T09:54:24;4.88;;;0.55;;
77160;SDS011;66135;0.000;0.000;2023-09-19T09:57:11;6.22;;;0.65;;
77160;SDS011;66135;0.000;0.000;2023-09-19T10:00:00;4.55;;;0.50;;
77160;SDS011;66135;0.000;0.000;2023-09-19T10:02:41;5.82;;;0.88;;
77160;SDS011;66135;0.000;0.000;2023-09-19T10:08:09;4.15;;;0.50;;
77160;SDS011;66135;0.000;0.000;2023-09-19T10:10:38;3.38;;;0.50;;
77160;SDS011;66135;0.000;0.000;2023-09-19T10:13:05;3.03;;;0.52;;
77160;SDS011;66135;0.000;0.000;2023-09-19T10:15:32;5.30;;;0.45;;
77160;SDS011;66135;0.000;0.000;2023-09-19T10:18:04;2.70;;;0.40;;
77160;SDS011;66135;0.000;0.000;2023-09-19T10:20:33;3.80;;;0.45;;
77160;SDS011;66135;0.000;0.000;2023-09-19T10:23:00;3.88;;;0.65;;
77160;SDS011;66135;0.000;0.000;2023-09-19T10:25:29;4.25;;;0.73;;
77160;SDS011;66135;0.000;0.000;2023-09-19T10:27:55;3.40;;;0.70;;
77160;SDS011;66135;0.000;0.000;2023-09-19T10:30:24;1.83;;;0.47;;
77160;SDS011;66135;0.000;0.000;2023-09-19T10:32:55;4.93;;;0.45;;
77160;SDS011;66135;0.000;0.000;2023-09-19T10:35:24;7.32;;;1.27;;
77160;SDS011;66135;0.000;0.000;2023-09-19T10:37:51;3.70;;;0.77;;
77160;SDS011;66135;0.000;0.000;2023-09-19T10:40:19;4.07;;;0.70;;
77160;SDS011;66135;0.000;0.000;2023-09-19T10:42:51;2.97;;;0.70;;
77160;SDS011;66135;0.000;0.000;2023-09-19T10:45:18;2.97;;;0.32;;
77160;SDS011;66135;0.000;0.000;2023-09-19T10:47:45;2.63;;;0.63;;
77160;SDS011;66135;0.000;0.000;2023-09-19T10:50:19;4.90;;;1.30;;
77160;SDS011;66135;0.000;0.000;2023-09-19T10:52:47;5.47;;;0.80;;
77160;SDS011;66135;0.000;0.000;2023-09-19T10:55:16;2.70;;;0.70;;
77160;SDS011;66135;0.000;0.000;2023-09-19T10:57:46;4.97;;;0.90;;
77160;SDS011;66135;0.000;0.000;2023-09-19T11:00:13;3.25;;;0.80;;
77160;SDS011;66135;0.000;0.000;2023-09-19T11:06:04;3.70;;;0.60;;
77160;SDS011;66135;0.000;0.000;2023-09-19T11:11:47;5.10;;;0.50;;
77160;SDS011;66135;0.000;0.000;2023-09-19T11:30:42;4.35;;;0.93;;
77160;SDS011;66135;0.000;0.000;2023-09-19T11:33:30;3.42;;;0.60;;
77160;SDS011;66135;0.000;0.000;2023-09-19T11:46:13;2.78;;;0.32;;
77160;SDS011;66135;0.000;0.000;2023-09-19T11:48:41;2.83;;;0.38;;
77160;SDS011;66135;0.000;0.000;2023-09-19T11:51:12;4.25;;;0.40;;
77160;SDS011;66135;0.000;0.000;2023-09-19T11:53:47;4.10;;;0.68;;
77160;SDS011;66135;0.000;0.000;2023-09-19T11:56:16;4.45;;;0.80;;
77160;SDS011;66135;0.000;0.000;2023-09-19T12:01:14;3.35;;;0.47;;
77160;SDS011;66135;0.000;0.000;2023-09-19T12:03:46;4.10;;;0.68;;
77160;SDS011;66135;0.000;0.000;2023-09-19T12:06:15;5.25;;;0.50;;
77160;SDS011;66135;0.000;0.000;2023-09-19T12:08:41;5.30;;;0.50;;
77160;SDS011;66135;0.000;0.000;2023-09-19T12:11:12;3.17;;;0.50;;
77160;SDS011;66135;0.000;0.000;2023-09-19T12:13:45;5.72;;;0.75;;
77160;SDS011;66135;0.000;0.000;2023-09-19T12:16:15;3.90;;;0.85;;
77160;SDS011;66135;0.000;0.000;2023-09-19T12:18:42;5.03;;;0.98;;
77160;SDS011;66135;0.000;0.000;2023-09-19T12:21:20;4.00;;;0.30;;
77160;SDS011;66135;0.000;0.000;2023-09-19T12:24:05;2.53;;;0.50;;
77160;SDS011;66135;0.000;0.000;2023-09-19T12:26:39;4.90;;;0.45;;
77160;SDS011;66135;0.000;0.000;2023-09-19T12:29:15;2.65;;;0.30;;
77160;SDS011;66135;0.000;0.000;2023-09-19T12:31:55;3.83;;;0.63;;
77160;SDS011;66135;0.000;0.000;2023-09-19T12:34:32;3.78;;;0.40;;
77160;SDS011;66135;0.000;0.000;2023-09-19T12:39:40;1.70;;;0.15;;
77160;SDS011;66135;0.000;0.000;2023-09-19T12:42:13;2.75;;;0.40;;
77160;SDS011;66135;0.000;0.000;2023-09-19T12:44:46;1.70;;;0.38;;
77160;SDS011;66135;0.000;0.000;2023-09-19T12:47:22;3.17;;;0.30;;
77160;SDS011;66135;0.000;0.000;2023-09-19T12:50:22;2.45;;;0.50;;
77160;SDS011;66135;0.000;0.000;2023-09-19T12:52:50;3.70;;;0.47;;
77160;SDS011;66135;0.000;0.000;2023-09-19T12:57:59;1.50;;;0.20;;
77160;SDS011;66135;0.000;0.000;2023-09-19T13:03:14;2.88;;;0.35;;
77160;SDS011;66135;0.000;0.000;2023-09-19T13:05:50;2.00;;;0.20;;
77160;SDS011;66135;0.000;0.000;2023-09-19T13:08:23;1.33;;;0.17;;
77160;SDS011;66135;0.000;0.000;2023-09-19T13:11:04;3.72;;;0.40;;
77160;SDS011;66135;0.000;0.000;2023-09-19T13:16:13;2.83;;;0.38;;
77160;SDS011;66135;0.000;0.000;2023-09-19T13:18:50;3.55;;;0.50;;
77160;SDS011;66135;0.000;0.000;2023-09-19T13:21:27;4.80;;;0.47;;
77160;SDS011;66135;0.000;0.000;2023-09-19T13:24:21;2.42;;;0.30;;
77160;SDS011;66135;0.000;0.000;2023-09-19T13:26:53;1.95;;;0.30;;
77160;SDS011;66135;0.000;0.000;2023-09-19T13:29:19;1.92;;;0.38;;
77160;SDS011;66135;0.000;0.000;2023-09-19T13:31:53;2.33;;;0.47;;
77160;SDS011;66135;0.000;0.000;2023-09-19T13:34:19;3.03;;;0.43;;
77160;SDS011;66135;0.000;0.000;2023-09-19T13:36:46;2.67;;;0.63;;
77160;SDS011;66135;0.000;0.000;2023-09-19T13:39:13;2.92;;;0.20;;
77160;SDS011;66135;0.000;0.000;2023-09-19T13:41:40;2.75;;;0.20;;
77160;SDS011;66135;0.000;0.000;2023-09-19T13:44:07;3.70;;;0.20;;
77160;SDS011;66135;0.000;0.000;2023-09-19T13:46:35;3.05;;;0.65;;
77160;SDS011;66135;0.000;0.000;2023-09-19T13:49:01;5.05;;;0.43;;
77160;SDS011;66135;0.000;0.000;2023-09-19T13:51:28;2.70;;;0.38;;
77160;SDS011;66135;0.000;0.000;2023-09-19T13:53:56;2.38;;;0.50;;
77160;SDS011;66135;0.000;0.000;2023-09-19T13:56:21;2.92;;;0.30;;
77160;SDS011;66135;0.000;0.000;2023-09-19T13:58:47;3.53;;;0.35;;
77160;SDS011;66135;0.000;0.000;2023-09-19T14:01:12;1.73;;;0.40;;
77160;SDS011;66135;0.000;0.000;2023-09-19T14:03:41;1.15;;;0.20;;
77160;SDS011;66135;0.000;0.000;2023-09-19T14:06:14;2.97;;;0.43;;
77160;SDS011;66135;0.000;0.000;2023-09-19T14:08:40;1.75;;;0.25;;
77160;SDS011;66135;0.000;0.000;2023-09-19T14:11:06;2.22;;;0.55;;
77160;SDS011;66135;0.000;0.000;2023-09-19T14:13:32;4.55;;;0.75;;
77160;SDS011;66135;0.000;0.000;2023-09-19T14:15:57;2.67;;;0.30;;
77160;SDS011;66135;0.000;0.000;2023-09-19T14:18:23;4.30;;;0.30;;
77160;SDS011;66135;0.000;0.000;2023-09-19T14:20:48;4.13;;;0.20;;
77160;SDS011;66135;0.000;0.000;2023-09-19T14:23:18;1.88;;;0.20;;
77160;SDS011;66135;0.000;0.000;2023-09-19T14:25:43;2.63;;;0.43;;
77160;SDS011;66135;0.000;0.000;2023-09-19T14:30:34;2.22;;;0.38;;
77160;SDS011;66135;0.000;0.000;2023-09-19T14:32:59;2.35;;;0.50;;
77160;SDS011;66135;0.000;0.000;2023-09-19T14:35:25;2.28;;;0.43;;
77160;SDS011;66135;0.000;0.000;2023-09-19T14:37:50;1.67;;;0.22;;
77160;SDS011;66135;0.000;0.000;2023-09-19T14:40:16;2.97;;;0.47;;
77160;SDS011;66135;0.000;0.000;2023-09-19T14:42:42;2.95;;;0.30;;
77160;SDS011;66135;0.000;0.000;2023-09-19T14:45:10;4.22;;;0.38;;
77160;SDS011;66135;0.000;0.000;2023-09-19T14:47:36;5.40;;;0.30;;
77160;SDS011;66135;0.000;0.000;2023-09-19T14:50:02;4.10;;;0.20;;
77160;SDS011;66135;0.000;0.000;2023-09-19T14:52:32;2.97;;;0.63;;
77160;SDS011;66135;0.000;0.000;2023-09-19T14:54:58;2.08;;;0.20;;
77160;SDS011;66135;0.000;0.000;2023-09-19T14:57:24;6.28;;;0.35;;
77160;SDS011;66135;0.000;0.000;2023-09-19T14:59:51;2.10;;;0.45;;
77160;SDS011;66135;0.000;0.000;2023-09-19T15:02:16;3.95;;;0.50;;
77160;SDS011;66135;0.000;0.000;2023-09-19T15:04:42;2.33;;;0.30;;
77160;SDS011;66135;0.000;0.000;2023-09-19T15:07:09;2.80;;;0.20;;
77160;SDS011;66135;0.000;0.000;2023-09-19T15:09:35;2.10;;;0.20;;
77160;SDS011;66135;0.000;0.000;2023-09-19T15:12:01;4.00;;;0.30;;
77160;SDS011;66135;0.000;0.000;2023-09-19T15:14:26;1.88;;;0.40;;
77160;SDS011;66135;0.000;0.000;2023-09-19T15:16:51;5.30;;;0.55;;
77160;SDS011;66135;0.000;0.000;2023-09-19T15:19:17;2.75;;;0.50;;
77160;SDS011;66135;0.000;0.000;2023-09-19T15:21:43;5.07;;;0.80;;
77160;SDS011;66135;0.000;0.000;2023-09-19T15:24:08;2.97;;;0.63;;
77160;SDS011;66135;0.000;0.000;2023-09-19T15:26:35;3.22;;;0.60;;
77160;SDS011;66135;0.000;0.000;2023-09-19T15:29:04;5.10;;;1.05;;
77160;SDS011;66135;0.000;0.000;2023-09-19T15:31:34;5.15;;;0.88;;
77160;SDS011;66135;0.000;0.000;2023-09-19T15:34:01;6.25;;;1.48;;
77160;SDS011;66135;0.000;0.000;2023-09-19T16:54:18;12.68;;;3.47;;
77160;SDS011;66135;0.000;0.000;2023-09-19T16:56:43;10.38;;;4.13;;
77160;SDS011;66135;0.000;0.000;2023-09-19T16:59:09;11.52;;;3.72;;
77160;SDS011;66135;0.000;0.000;2023-09-19T17:01:35;13.40;;;3.35;;
77160;SDS011;66135;0.000;0.000;2023-09-19T17:04:00;7.68;;;3.55;;
77160;SDS011;66135;0.000;0.000;2023-09-19T17:06:27;10.07;;;2.90;;
77160;SDS011;66135;0.000;0.000;2023-09-19T17:08:53;10.20;;;3.25;;
77160;SDS011;66135;0.000;0.000;2023-09-19T17:11:19;8.70;;;3.30;;
77160;SDS011;66135;0.000;0.000;2023-09-19T17:13:46;12.75;;;3.67;;
77160;SDS011;66135;0.000;0.000;2023-09-19T17:16:12;13.88;;;3.20;;
77160;SDS011;66135;0.000;0.000;2023-09-19T17:18:49;13.93;;;3.70;;
77160;SDS011;66135;0.000;0.000;2023-09-19T17:21:15;8.88;;;2.53;;
77160;SDS011;66135;0.000;0.000;2023-09-19T17:23:41;9.05;;;2.60;;
77160;SDS011;66135;0.000;0.000;2023-09-19T17:26:11;10.07;;;2.65;;
77160;SDS011;66135;0.000;0.000;2023-09-19T17:28:39;9.45;;;2.63;;
77160;SDS011;66135;0.000;0.000;2023-09-19T17:31:15;8.95;;;2.47;;
77160;SDS011;66135;0.000;0.000;2023-09-19T17:33:46;10.75;;;2.53;;
77160;SDS011;66135;0.000;0.000;2023-09-19T17:36:13;9.32;;;2.22;;
77160;SDS011;66135;0.000;0.000;2023-09-19T17:38:41;7.93;;;2.28;;
77160;SDS011;66135;0.000;0.000;2023-09-19T17:41:08;7.10;;;2.03;;
77160;SDS011;66135;0.000;0.000;2023-09-19T17:43:34;11.88;;;2.00;;
77160;SDS011;66135;0.000;0.000;2023-09-19T17:46:05;10.63;;;2.08;;
77160;SDS011;66135;0.000;0.000;2023-09-19T17:48:41;8.35;;;1.63;;
77160;SDS011;66135;0.000;0.000;2023-09-19T17:51:08;6.55;;;2.10;;
77160;SDS011;66135;0.000;0.000;2023-09-19T17:53:38;7.65;;;1.85;;
77160;SDS011;66135;0.000;0.000;2023-09-19T17:56:05;6.25;;;1.58;;
77160;SDS011;66135;0.000;0.000;2023-09-19T17:58:34;12.15;;;2.28;;
77160;SDS011;66135;0.000;0.000;2023-09-19T18:01:16;5.82;;;1.60;;
77160;SDS011;66135;0.000;0.000;2023-09-19T18:03:46;6.85;;;1.70;;
77160;SDS011;66135;0.000;0.000;2023-09-19T18:06:13;6.10;;;1.35;;
77160;SDS011;66135;0.000;0.000;2023-09-19T18:08:39;5.65;;;1.27;;
77160;SDS011;66135;0.000;0.000;2023-09-19T18:11:07;8.00;;;1.92;;
77160;SDS011;66135;0.000;0.000;2023-09-19T18:13:39;7.40;;;1.88;;
77160;SDS011;66135;0.000;0.000;2023-09-19T18:16:06;4.57;;;1.17;;
77160;SDS011;66135;0.000;0.000;2023-09-19T18:18:35;6.03;;;1.38;;
77160;SDS011;66135;0.000;0.000;2023-09-19T18:21:01;7.93;;;1.52;;
77160;SDS011;66135;0.000;0.000;2023-09-19T18:23:27;8.23;;;1.50;;
77160;SDS011;66135;0.000;0.000;2023-09-19T18:25:57;5.57;;;1.52;;
77160;SDS011;66135;0.000;0.000;2023-09-19T18:28:23;4.68;;;1.08;;
77160;SDS011;66135;0.000;0.000;2023-09-19T18:30:48;3.85;;;0.90;;
77160;SDS011;66135;0.000;0.000;2023-09-19T18:33:14;5.10;;;1.08;;
77160;SDS011;66135;0.000;0.000;2023-09-19T18:35:40;4.10;;;1.13;;
77160;SDS011;66135;0.000;0.000;2023-09-19T18:38:06;6.75;;;1.08;;
77160;SDS011;66135;0.000;0.000;2023-09-19T18:40:32;6.13;;;1.67;;
77160;SDS011;66135;0.000;0.000;2023-09-19T18:42:58;3.92;;;1.10;;
77160;SDS011;66135;0.000;0.000;2023-09-19T18:45:24;5.65;;;0.70;;
77160;SDS011;66135;0.000;0.000;2023-09-19T18:47:50;6.38;;;2.15;;